Time;durP1;ratioP1;P1;durP2;ratioP2;P2;SDS_P1;SDS_P2;PMS_P1;PMS_P2;Temp;Humidity;BMP_temperature;BMP_pressure;BME280_temperature;BME280_humidity;BME280_pressure;Samples;Min_cycle;Max_cycle;Signal;HPM_P1;HPM_P2
2024/02/01 00:00:12;;;;;;;9.37;5.93;;;;;;;8.19;100.00;99367.41;5080016;28;20232;-79
2024/02/01 00:02:38;;;;;;;8.30;4.80;;;;;;;8.16;100.00;99363.13;5080252;28;20232;-79
2024/02/01 00:05:05;;;;;;;5.17;3.23;;;;;;;8.26;100.00;99347.84;5078926;28;20683;-79
2024/02/01 00:07:33;;;;;;;4.63;3.10;;;;;;;8.34;100.00;99351.84;5078755;28;20204;-78
2024/02/01 00:10:00;;;;;;;5.43;3.63;;;;;;;8.42;100.00;99333.13;5078943;28;20202;-79
2024/02/01 00:12:26;;;;;;;5.47;3.50;;;;;;;8.50;100.00;99346.84;5078872;28;20234;-79
2024/02/01 00:14:53;;;;;;;4.83;3.53;;;;;;;8.50;100.00;99346.84;5079437;28;20219;-78
2024/02/01 00:17:19;;;;;;;4.70;3.43;;;;;;;8.48;100.00;99339.00;5077916;28;20206;-79
2024/02/01 00:19:46;;;;;;;4.93;3.60;;;;;;;8.51;100.00;99348.56;5077282;28;20236;-79
2024/02/01 00:22:12;;;;;;;5.03;3.70;;;;;;;8.50;100.00;99347.69;5072899;28;20233;-79
2024/02/01 00:24:40;;;;;;;6.00;3.00;;;;;;;8.52;100.00;99337.94;5075606;28;20670;-78
2024/02/01 00:27:07;;;;;;;5.03;3.13;;;;;;;8.54;100.00;99322.94;5077416;28;20223;-77
2024/02/01 00:29:33;;;;;;;4.77;3.03;;;;;;;8.55;100.00;99335.19;5078000;28;20218;-78
2024/02/01 00:31:59;;;;;;;6.07;3.30;;;;;;;8.60;100.00;99330.56;5078974;28;20252;-78
2024/02/01 00:34:26;;;;;;;6.43;3.37;;;;;;;8.60;100.00;99327.06;5077875;28;20209;-77
2024/02/01 00:36:52;;;;;;;5.00;3.13;;;;;;;8.57;100.00;99324.59;5077395;28;20214;-78
2024/02/01 00:39:19;;;;;;;4.17;3.23;;;;;;;8.59;100.00;99336.78;5078782;28;20209;-78
2024/02/01 00:41:47;;;;;;;4.87;2.43;;;;;;;8.62;100.00;99330.53;5077710;28;20829;-78
2024/02/01 00:44:13;;;;;;;3.07;2.00;;;;;;;8.65;100.00;99338.28;5078439;28;20206;-78
2024/02/01 00:46:40;;;;;;;2.80;2.20;;;;;;;8.68;100.00;99336.38;5077971;28;20755;-78
2024/02/01 00:49:06;;;;;;;3.70;1.83;;;;;;;8.79;100.00;99334.13;5075112;28;20219;-80
2024/02/01 00:51:33;;;;;;;3.03;1.73;;;;;;;8.96;100.00;99321.09;5075356;28;20229;-79
2024/02/01 00:53:59;;;;;;;3.40;1.77;;;;;;;8.99;100.00;99322.72;5078152;28;20208;-78
2024/02/01 00:56:26;;;;;;;3.63;2.33;;;;;;;9.04;100.00;99318.97;5078208;28;20214;-79
2024/02/01 00:58:53;;;;;;;4.33;3.40;;;;;;;9.14;100.00;99320.28;5076556;28;20214;-78
2024/02/01 01:01:20;;;;;;;6.90;3.37;;;;;;;9.07;100.00;99333.78;5078030;28;20602;-78
2024/02/01 01:03:46;;;;;;;7.70;3.77;;;;;;;8.97;100.00;99343.88;5077696;28;20211;-78
2024/02/01 01:06:13;;;;;;;8.87;4.63;;;;;;;9.00;100.00;99349.00;5077913;28;20204;-78
2024/02/01 01:08:39;;;;;;;7.40;4.53;;;;;;;8.94;100.00;99356.34;5076891;28;20214;-78
2024/02/01 01:11:06;;;;;;;8.70;4.80;;;;;;;8.85;100.00;99360.25;5071499;28;20554;-77
2024/02/01 01:13:32;;;;;;;8.87;5.50;;;;;;;8.85;100.00;99356.72;5071975;28;20209;-77
2024/02/01 01:16:00;;;;;;;9.90;6.50;;;;;;;8.89;100.00;99358.31;5071711;28;20657;-78
2024/02/01 01:18:28;;;;;;;12.17;6.03;;;;;;;8.94;100.00;99364.25;5071750;28;20209;-80
2024/02/01 01:20:56;;;;;;;7.73;5.43;;;;;;;8.95;100.00;99363.34;5071814;28;20712;-79
2024/02/01 01:23:22;;;;;;;7.27;5.73;;;;;;;8.98;100.00;99355.28;5077622;28;20648;-78
2024/02/01 01:25:49;;;;;;;9.93;5.77;;;;;;;8.95;100.00;99360.69;5077921;28;20214;-78
2024/02/01 01:28:15;;;;;;;11.00;6.30;;;;;;;8.90;100.00;99357.41;5075396;28;20215;-78
2024/02/01 01:30:42;;;;;;;9.73;6.20;;;;;;;8.86;100.00;99350.53;5077617;28;20221;-78
2024/02/01 01:33:10;;;;;;;9.07;6.40;;;;;;;8.83;100.00;99355.94;5074004;28;20239;-78
2024/02/01 01:35:36;;;;;;;8.80;5.47;;;;;;;8.83;100.00;99364.72;5078411;28;20219;-78
2024/02/01 01:38:03;;;;;;;10.47;5.97;;;;;;;8.83;100.00;99366.50;5075164;28;20207;-77
2024/02/01 01:40:29;;;;;;;9.50;5.93;;;;;;;8.84;100.00;99371.72;5075532;28;20233;-77
2024/02/01 01:42:57;;;;;;;9.13;5.87;;;;;;;8.87;100.00;99362.81;5071897;28;20235;-77
2024/02/01 01:45:23;;;;;;;10.70;6.43;;;;;;;8.84;100.00;99357.66;5071642;28;20211;-77
2024/02/01 01:47:50;;;;;;;9.77;6.17;;;;;;;8.75;100.00;99355.44;5071458;28;20224;-78
2024/02/01 01:50:18;;;;;;;9.10;5.90;;;;;;;8.80;100.00;99358.69;5072047;28;20205;-77
2024/02/01 01:52:47;;;;;;;6.90;5.50;;;;;;;8.80;100.00;99371.88;5071891;28;20259;-80
2024/02/01 01:55:16;;;;;;;9.47;5.60;;;;;;;8.88;100.00;99365.34;5071684;28;20215;-78
2024/02/01 01:57:43;;;;;;;9.43;5.63;;;;;;;8.86;100.00;99361.06;5075456;28;20225;-77
2024/02/01 02:00:11;;;;;;;9.70;5.87;;;;;;;8.79;100.00;99363.13;5073128;28;20331;-77
2024/02/01 02:02:39;;;;;;;9.23;5.73;;;;;;;8.77;100.00;99362.34;5077672;28;20226;-78
2024/02/01 02:05:07;;;;;;;6.93;4.83;;;;;;;8.83;100.00;99361.22;5076024;28;20208;-77
2024/02/01 02:07:34;;;;;;;10.83;5.97;;;;;;;8.83;100.00;99355.94;5080590;28;20216;-78
2024/02/01 02:10:01;;;;;;;9.27;5.50;;;;;;;8.80;100.00;99350.78;5081865;28;20214;-78
2024/02/01 02:12:28;;;;;;;6.80;5.17;;;;;;;8.78;100.00;99342.97;5082935;28;20229;-78
2024/02/01 02:14:58;;;;;;;10.07;5.63;;;;;;;8.75;100.00;99342.25;5082909;28;20276;-78
2024/02/01 02:17:25;;;;;;;7.37;5.23;;;;;;;8.74;100.00;99335.25;5082415;28;20277;-78
2024/02/01 02:19:52;;;;;;;8.30;5.13;;;;;;;8.73;100.00;99333.53;5083086;28;20252;-78
2024/02/01 02:22:20;;;;;;;6.67;5.10;;;;;;;8.72;100.00;99326.56;5083900;28;20345;-78
2024/02/01 02:24:46;;;;;;;8.80;5.20;;;;;;;8.72;100.00;99329.19;5084192;28;20214;-78
2024/02/01 02:27:13;;;;;;;7.60;5.17;;;;;;;8.68;100.00;99330.22;5082453;28;20221;-78
2024/02/01 02:29:39;;;;;;;8.43;5.40;;;;;;;8.72;100.00;99342.38;5083878;28;20220;-78
2024/02/01 02:32:07;;;;;;;9.03;5.30;;;;;;;8.68;100.00;99332.88;5083270;28;20606;-78
2024/02/01 02:34:33;;;;;;;9.37;5.77;;;;;;;8.63;100.00;99321.69;5083092;28;20207;-78
2024/02/01 02:36:59;;;;;;;8.00;5.43;;;;;;;8.53;100.00;99321.22;5082540;28;20238;-78
2024/02/01 02:39:27;;;;;;;10.30;4.77;;;;;;;8.45;100.00;99330.38;5083760;28;20220;-78
2024/02/01 02:41:54;;;;;;;10.63;5.43;;;;;;;8.46;100.00;99329.44;5083790;28;20821;-78
2024/02/01 02:44:20;;;;;;;7.27;5.13;;;;;;;8.44;100.00;99326.88;5083303;28;20716;-78
2024/02/01 02:46:47;;;;;;;6.10;4.43;;;;;;;8.45;100.00;99333.00;5081091;28;20218;-78
2024/02/01 02:49:13;;;;;;;12.20;5.03;;;;;;;8.53;100.00;99317.72;5083286;28;20207;-78
2024/02/01 02:51:40;;;;;;;7.73;4.87;;;;;;;8.59;100.00;99320.09;5085959;28;20234;-79
2024/02/01 02:54:06;;;;;;;6.47;4.40;;;;;;;8.60;100.00;99316.53;5084516;28;20208;-77
2024/02/01 02:56:34;;;;;;;9.10;4.67;;;;;;;8.56;100.00;99310.53;5083445;28;20219;-80
2024/02/01 02:59:01;;;;;;;6.43;4.33;;;;;;;8.53;100.00;99313.31;5081582;28;20218;-77
2024/02/01 03:01:27;;;;;;;5.60;4.33;;;;;;;8.48;100.00;99319.69;5075502;28;20243;-78
2024/02/01 03:03:54;;;;;;;6.60;4.40;;;;;;;8.39;100.00;99328.81;5074718;28;20214;-77
2024/02/01 03:06:20;;;;;;;7.60;4.13;;;;;;;8.33;100.00;99328.25;5075314;28;20233;-77
2024/02/01 03:08:47;;;;;;;10.13;5.07;;;;;;;8.22;100.00;99325.19;5074468;28;20248;-78
2024/02/01 03:11:13;;;;;;;5.70;3.97;;;;;;;8.17;100.00;99327.09;5074536;28;20207;-77
2024/02/01 03:13:45;;;;;;;5.47;3.90;;;;;;;8.10;100.00;99336.19;5074490;28;20698;-77
2024/02/01 03:16:16;;;;;;;7.07;3.77;;;;;;;8.04;100.00;99336.44;5074920;28;20204;-78
2024/02/01 03:18:44;;;;;;;5.40;3.73;;;;;;;7.97;100.00;99340.22;5073594;28;20628;-78
2024/02/01 03:21:11;;;;;;;5.50;3.73;;;;;;;7.87;100.00;99326.56;5074886;28;20271;-80
2024/02/01 03:23:37;;;;;;;5.97;3.77;;;;;;;7.85;100.00;99317.03;5074556;28;20212;-77
2024/02/01 03:26:04;;;;;;;6.30;3.93;;;;;;;7.84;100.00;99303.00;5073980;28;20223;-77
2024/02/01 03:28:31;;;;;;;6.17;4.00;;;;;;;7.86;100.00;99297.69;5074388;28;20227;-78
2024/02/01 03:30:59;;;;;;;5.00;3.53;;;;;;;7.92;100.00;99307.97;5075191;28;20211;-79
2024/02/01 03:33:25;;;;;;;4.73;3.53;;;;;;;7.91;100.00;99298.34;5074814;28;20213;-77
2024/02/01 03:35:52;;;;;;;7.50;4.27;;;;;;;7.93;100.00;99304.41;5074583;28;20676;-80
2024/02/01 03:38:18;;;;;;;4.80;3.73;;;;;;;7.94;100.00;99308.75;5077462;28;20222;-78
2024/02/01 03:40:45;;;;;;;4.70;3.27;;;;;;;7.93;100.00;99305.28;5077225;28;20227;-78
2024/02/01 03:43:12;;;;;;;5.43;3.47;;;;;;;8.02;100.00;99307.53;5078122;28;20232;-78
2024/02/01 03:45:48;;;;;;;6.47;3.33;;;;;;;8.10;100.00;99309.84;5078095;28;20212;-78
2024/02/01 03:48:16;;;;;;;4.67;3.13;;;;;;;8.16;100.00;99309.59;5077966;28;20256;-78
2024/02/01 03:50:43;;;;;;;8.00;3.77;;;;;;;8.20;100.00;99309.44;5077189;28;20205;-78
2024/02/01 03:53:10;;;;;;;5.43;3.37;;;;;;;8.23;100.00;99311.09;5078214;28;20246;-78
2024/02/01 03:55:37;;;;;;;5.03;3.50;;;;;;;8.25;100.00;99314.50;5078226;28;20233;-78
2024/02/01 03:58:05;;;;;;;5.07;3.47;;;;;;;8.29;100.00;99308.22;5077533;28;20220;-78
2024/02/01 04:00:31;;;;;;;5.37;3.27;;;;;;;8.30;100.00;99318.69;5077361;28;20206;-77
2024/02/01 04:02:59;;;;;;;6.50;3.20;;;;;;;8.31;100.00;99315.13;5077001;28;20231;-78
2024/02/01 04:05:28;;;;;;;4.30;3.27;;;;;;;8.33;100.00;99320.34;5078182;28;20208;-80
2024/02/01 04:07:54;;;;;;;3.90;3.10;;;;;;;8.34;100.00;99324.69;5077242;28;20203;-78
2024/02/01 04:10:21;;;;;;;4.53;3.20;;;;;;;8.40;100.00;99324.44;5077840;28;20205;-78
2024/02/01 04:12:48;;;;;;;6.30;3.70;;;;;;;8.41;100.00;99320.88;5077022;28;20224;-78
2024/02/01 04:15:15;;;;;;;7.17;3.90;;;;;;;8.46;100.00;99317.09;5077674;28;20605;-78
2024/02/01 04:17:42;;;;;;;6.43;3.97;;;;;;;8.43;100.00;99311.09;5076734;28;20303;-78
2024/02/01 04:20:09;;;;;;;6.40;3.70;;;;;;;8.43;100.00;99303.22;5077994;28;20218;-78
2024/02/01 04:22:37;;;;;;;4.87;3.97;;;;;;;8.39;100.00;99291.09;5077680;28;20255;-78
2024/02/01 04:25:08;;;;;;;6.37;3.83;;;;;;;8.38;100.00;99294.66;5078271;28;20205;-78
2024/02/01 04:27:34;;;;;;;4.93;3.80;;;;;;;8.40;100.00;99292.81;5077076;28;20232;-78
2024/02/01 04:30:01;;;;;;;6.13;3.87;;;;;;;8.37;100.00;99298.19;5075279;28;20417;-78
2024/02/01 04:32:27;;;;;;;4.57;3.30;;;;;;;8.35;100.00;99300.03;5074506;28;20225;-80
2024/02/01 04:34:54;;;;;;;4.67;3.30;;;;;;;8.32;100.00;99302.81;5077306;28;20210;-78
2024/02/01 04:37:22;;;;;;;6.57;3.50;;;;;;;8.29;100.00;99301.19;5077255;28;20215;-78
2024/02/01 04:39:50;;;;;;;4.47;3.20;;;;;;;8.31;100.00;99298.44;5077936;28;20295;-79
2024/02/01 04:42:17;;;;;;;4.10;2.83;;;;;;;8.34;100.00;99295.69;5076928;28;20244;-78
2024/02/01 04:44:46;;;;;;;4.33;2.97;;;;;;;8.31;100.00;99282.66;5077548;28;20244;-79
2024/02/01 04:47:13;;;;;;;4.10;3.33;;;;;;;8.32;100.00;99289.66;5077394;28;20294;-79
2024/02/01 04:49:40;;;;;;;4.63;2.90;;;;;;;8.34;100.00;99277.28;5078308;28;20504;-79
2024/02/01 04:52:06;;;;;;;4.77;3.10;;;;;;;8.39;100.00;99286.69;5077398;28;20221;-79
2024/02/01 04:54:34;;;;;;;5.67;2.90;;;;;;;8.40;100.00;99284.91;5077331;28;20205;-79
2024/02/01 04:57:03;;;;;;;4.63;3.07;;;;;;;8.37;100.00;99279.75;5077218;28;20213;-79
2024/02/01 04:59:29;;;;;;;5.30;2.87;;;;;;;8.39;100.00;99291.09;5077104;28;20671;-79
2024/02/01 05:01:56;;;;;;;3.83;2.90;;;;;;;8.39;100.00;99285.84;5076778;28;20230;-79
2024/02/01 05:04:22;;;;;;;3.20;2.60;;;;;;;8.40;100.00;99277.00;5078057;28;20214;-78
2024/02/01 05:06:50;;;;;;;3.80;2.40;;;;;;;8.45;100.00;99275.88;5077783;28;20218;-79
2024/02/01 05:09:32;;;;;;;2.73;2.17;;;;;;;8.51;100.00;99275.63;5078175;28;20208;-78
2024/02/01 05:11:58;;;;;;;2.53;2.30;;;;;;;8.54;100.00;99287.81;5078896;28;20229;-78
2024/02/01 05:14:26;;;;;;;3.27;2.67;;;;;;;8.48;100.00;99282.81;5078558;28;20217;-79
2024/02/01 05:16:53;;;;;;;3.87;2.33;;;;;;;8.44;100.00;99289.13;5077513;28;20212;-79
2024/02/01 05:19:19;;;;;;;3.67;2.50;;;;;;;8.46;100.00;99288.13;5077693;28;20207;-78
2024/02/01 05:21:47;;;;;;;2.23;2.03;;;;;;;8.42;100.00;99291.84;5077119;28;20639;-78
2024/02/01 05:24:14;;;;;;;3.83;2.63;;;;;;;8.36;100.00;99286.81;5077535;28;20213;-79
2024/02/01 05:26:40;;;;;;;3.90;2.37;;;;;;;8.27;100.00;99281.91;5076155;28;20209;-78
2024/02/01 05:29:09;;;;;;;3.80;2.13;;;;;;;8.24;100.00;99287.34;5076627;28;20308;-79
2024/02/01 05:31:37;;;;;;;3.97;2.63;;;;;;;8.20;100.00;99290.16;5077448;28;20220;-79
2024/02/01 05:34:05;;;;;;;4.40;2.23;;;;;;;8.16;100.00;99278.00;5077582;28;20219;-79
2024/02/01 05:36:32;;;;;;;3.23;2.50;;;;;;;8.12;100.00;99276.41;5078056;28;20212;-79
2024/02/01 05:38:58;;;;;;;3.00;1.87;;;;;;;8.10;100.00;99271.22;5077222;28;20217;-79
2024/02/01 05:41:25;;;;;;;2.80;2.30;;;;;;;8.09;100.00;99271.28;5080657;28;20261;-79
2024/02/01 05:43:51;;;;;;;2.87;2.13;;;;;;;8.08;100.00;99273.03;5081796;28;20214;-79
2024/02/01 05:46:18;;;;;;;2.63;2.10;;;;;;;8.08;100.00;99280.09;5081369;28;20212;-79
2024/02/01 05:48:46;;;;;;;3.80;2.50;;;;;;;8.09;100.00;99284.44;5080112;28;20212;-78
2024/02/01 05:51:12;;;;;;;4.27;2.13;;;;;;;8.06;100.00;99289.81;5080740;28;20217;-79
2024/02/01 05:53:39;;;;;;;3.67;2.20;;;;;;;8.04;100.00;99299.56;5080958;28;20212;-79
2024/02/01 05:56:06;;;;;;;3.60;2.50;;;;;;;8.00;100.00;99304.09;5080837;28;20207;-78
2024/02/01 05:58:32;;;;;;;3.53;2.30;;;;;;;7.98;100.00;99311.22;5079780;28;20237;-79
2024/02/01 06:00:59;;;;;;;4.27;2.77;;;;;;;7.92;100.00;99310.59;5079773;28;20212;-78
2024/02/01 06:03:26;;;;;;;3.37;2.83;;;;;;;7.89;100.00;99316.81;5079795;28;20218;-78
2024/02/01 06:05:54;;;;;;;4.47;3.10;;;;;;;7.82;100.00;99325.03;5078219;28;20216;-80
2024/02/01 06:08:20;;;;;;;4.73;3.10;;;;;;;7.73;100.00;99328.03;5076055;28;20213;-78
2024/02/01 06:10:46;;;;;;;7.20;3.30;;;;;;;7.63;100.00;99324.03;5080126;28;20217;-78
2024/02/01 06:13:13;;;;;;;6.57;3.87;;;;;;;7.60;100.00;99319.75;5079585;28;20236;-78
2024/02/01 06:15:39;;;;;;;4.37;3.47;;;;;;;7.55;100.00;99328.75;5079755;28;20219;-79
2024/02/01 06:18:06;;;;;;;7.47;3.90;;;;;;;7.55;100.00;99334.88;5078883;28;20214;-78
2024/02/01 06:20:34;;;;;;;5.40;3.70;;;;;;;7.52;100.00;99339.34;5079656;28;20211;-79
2024/02/01 06:23:04;;;;;;;6.10;3.87;;;;;;;7.45;100.00;99343.16;5079262;28;20690;-78
2024/02/01 06:25:30;;;;;;;5.00;3.83;;;;;;;7.40;100.00;99331.94;5079190;28;20210;-78
2024/02/01 06:27:57;;;;;;;5.10;4.10;;;;;;;7.37;100.00;99337.31;5079291;28;20611;-78
2024/02/01 06:30:24;;;;;;;7.30;4.37;;;;;;;7.33;100.00;99335.72;5079670;28;20226;-79
2024/02/01 06:32:50;;;;;;;7.47;4.63;;;;;;;7.29;100.00;99334.13;5079597;28;20281;-79
2024/02/01 06:35:17;;;;;;;7.03;4.47;;;;;;;7.28;100.00;99332.41;5079598;28;20212;-79
2024/02/01 06:37:51;;;;;;;7.70;4.70;;;;;;;7.29;100.00;99334.13;5078979;28;20218;-79
2024/02/01 06:40:37;;;;;;;8.17;5.17;;;;;;;7.27;100.00;99335.94;5079702;28;20211;-80
2024/02/01 06:43:17;;;;;;;5.77;4.47;;;;;;;7.29;100.00;99339.38;5078952;28;20262;-79
2024/02/01 06:45:47;;;;;;;10.00;5.20;;;;;;;7.30;100.00;99341.09;5078761;28;20207;-79
2024/02/01 06:48:14;;;;;;;7.40;4.57;;;;;;;7.27;100.00;99349.09;5076719;28;20208;-79
2024/02/01 06:50:54;;;;;;;7.13;4.53;;;;;;;7.27;100.00;99340.34;5078512;28;20227;-79
2024/02/01 06:53:23;;;;;;;9.27;4.87;;;;;;;7.28;100.00;99345.56;5078720;28;20223;-79
2024/02/01 06:55:57;;;;;;;7.20;4.80;;;;;;;7.25;100.00;99348.28;5079434;28;20223;-79
2024/02/01 06:58:39;;;;;;;10.23;4.70;;;;;;;7.28;100.00;99354.28;5079168;28;20218;-79
2024/02/01 07:01:24;;;;;;;6.80;4.20;;;;;;;7.27;100.00;99349.09;5079216;28;20214;-79
2024/02/01 07:04:07;;;;;;;8.37;4.77;;;;;;;7.27;100.00;99335.94;5078877;28;20757;-79
2024/02/01 07:06:39;;;;;;;9.00;4.23;;;;;;;7.25;100.00;99337.78;5079016;28;20212;-79
2024/02/01 07:09:27;;;;;;;6.80;4.20;;;;;;;7.25;100.00;99332.50;5078491;28;20294;-79
2024/02/01 07:12:09;;;;;;;7.10;3.80;;;;;;;7.26;100.00;99326.34;5079346;28;20228;-79
2024/02/01 07:14:39;;;;;;;6.77;4.20;;;;;;;7.23;100.00;99323.84;5078848;28;20225;-79
2024/02/01 07:17:27;;;;;;;9.77;3.70;;;;;;;7.21;100.00;99324.81;5076771;28;20204;-79
2024/02/01 07:19:56;;;;;;;7.47;4.00;;;;;;;7.19;100.00;99330.13;5079817;28;20235;-79
2024/02/01 07:23:00;;;;;;;6.47;3.63;;;;;;;7.21;100.00;99330.91;5078970;28;20711;-79
2024/02/01 07:25:36;;;;;;;8.20;3.83;;;;;;;7.22;100.00;99337.03;5078663;28;20272;-79
2024/02/01 07:58:10;;;;;;;4.67;2.70;;;;;;;7.40;100.00;99348.59;5079014;28;20211;-80
2024/02/01 08:00:45;;;;;;;6.97;2.60;;;;;;;7.41;100.00;99350.28;5079286;28;20209;-80
2024/02/01 08:03:32;;;;;;;4.17;2.43;;;;;;;7.40;100.00;99347.72;5078668;28;20232;-79
2024/02/01 08:08:43;;;;;;;4.80;2.43;;;;;;;7.43;100.00;99352.88;5078480;28;20257;-81
2024/02/01 08:11:17;;;;;;;7.20;2.80;;;;;;;7.43;100.00;99356.38;5079259;28;20215;-79
2024/02/01 08:13:48;;;;;;;5.20;2.30;;;;;;;7.45;100.00;99367.69;5080068;28;20293;-79
2024/02/01 08:16:18;;;;;;;4.70;1.97;;;;;;;7.45;100.00;99361.56;5081672;28;20207;-79
2024/02/01 08:18:45;;;;;;;2.60;2.00;;;;;;;7.43;100.00;99366.03;5081413;28;20222;-79
2024/02/01 08:21:15;;;;;;;3.13;1.97;;;;;;;7.44;100.00;99365.97;5081913;28;20209;-79
2024/02/01 08:23:41;;;;;;;3.40;1.93;;;;;;;7.48;100.00;99377.25;5081736;28;20223;-79
2024/02/01 08:26:08;;;;;;;4.53;2.07;;;;;;;7.48;100.00;99378.06;5080739;28;20221;-78
2024/02/01 08:28:35;;;;;;;3.93;1.70;;;;;;;7.49;100.00;99373.69;5080081;28;20203;-79
2024/02/01 08:31:08;;;;;;;2.53;1.83;;;;;;;7.50;100.00;99378.91;5073386;28;20635;-77
2024/02/01 08:33:36;;;;;;;2.10;1.70;;;;;;;7.51;100.00;99377.97;5072432;28;20237;-80
2024/02/01 08:36:03;;;;;;;3.03;1.90;;;;;;;7.55;100.00;99368.19;5083656;28;20403;-79
2024/02/01 08:38:32;;;;;;;5.28;2.40;;;;;;;7.59;100.00;99372.44;5081275;28;20442;-77
2024/02/01 08:40:58;;;;;;;3.50;1.90;;;;;;;7.57;100.00;99379.50;5080671;28;20232;-79
2024/02/01 08:43:25;;;;;;;2.13;1.73;;;;;;;7.58;100.00;99378.59;5079698;28;20268;-80
2024/02/01 08:45:51;;;;;;;3.40;1.70;;;;;;;7.59;100.00;99380.34;5080987;28;20209;-78
2024/02/01 08:48:20;;;;;;;2.50;1.43;;;;;;;7.59;100.00;99375.06;5080841;28;20214;-79
2024/02/01 08:50:49;;;;;;;2.23;1.43;;;;;;;7.61;100.00;99386.38;5077268;28;20533;-78
2024/02/01 08:53:17;;;;;;;2.53;1.70;;;;;;;7.63;100.00;99389.81;5076926;28;20611;-78
2024/02/01 08:55:45;;;;;;;2.40;1.80;;;;;;;7.63;100.00;99392.44;5077454;28;20306;-78
2024/02/01 08:58:12;;;;;;;3.80;2.13;;;;;;;7.63;100.00;99390.69;5077105;28;20670;-78
2024/02/01 09:00:42;;;;;;;2.57;2.00;;;;;;;7.66;100.00;99398.44;5076637;28;20212;-78
2024/02/01 09:03:11;;;;;;;4.10;2.37;;;;;;;7.70;100.00;99399.19;5076212;28;20241;-78
2024/02/01 09:05:38;;;;;;;3.37;2.03;;;;;;;7.67;100.00;99392.28;5076668;28;20236;-78
2024/02/01 09:08:08;;;;;;;2.90;2.07;;;;;;;7.66;100.00;99392.34;5075725;28;20701;-78
2024/02/01 09:10:35;;;;;;;3.20;2.00;;;;;;;7.65;100.00;99398.53;5078645;28;20297;-78
2024/02/01 09:13:02;;;;;;;4.27;2.20;;;;;;;7.64;100.00;99402.91;5079175;28;20573;-78
2024/02/01 09:15:31;;;;;;;3.00;1.90;;;;;;;7.67;100.00;99405.44;5079512;28;20222;-79
2024/02/01 09:17:58;;;;;;;3.00;2.00;;;;;;;7.70;100.00;99405.31;5079587;28;20226;-78
2024/02/01 09:20:25;;;;;;;2.73;1.70;;;;;;;7.80;100.00;99411.09;5075717;28;20207;-78
2024/02/01 09:22:53;;;;;;;6.00;2.13;;;;;;;7.88;100.00;99398.47;5076157;28;20364;-80
2024/02/01 09:25:23;;;;;;;2.77;1.90;;;;;;;7.94;100.00;99403.50;5083548;28;20203;-78
2024/02/01 09:27:50;;;;;;;3.80;1.83;;;;;;;8.01;100.00;99407.63;5082572;28;20215;-79
2024/02/01 09:30:20;;;;;;;2.90;1.80;;;;;;;8.07;100.00;99404.75;5073856;28;20223;-77
2024/02/01 09:32:51;;;;;;;3.43;1.67;;;;;;;8.07;100.00;99410.88;5079976;28;20232;-79
2024/02/01 09:35:18;;;;;;;2.47;1.80;;;;;;;8.10;100.00;99407.28;5074400;28;20192;-79
2024/02/01 09:37:45;;;;;;;3.60;2.20;;;;;;;8.16;100.00;99409.66;5071201;28;20448;-78
2024/02/01 09:40:12;;;;;;;3.30;2.00;;;;;;;8.17;100.00;99414.00;5076468;28;20219;-78
2024/02/01 09:42:42;;;;;;;1.93;1.70;;;;;;;8.19;100.00;99414.78;5076780;28;20246;-80
2024/02/01 09:45:10;;;;;;;2.87;2.10;;;;;;;8.23;100.00;99424.34;5076007;28;20238;-78
2024/02/01 09:47:43;;;;;;;3.57;1.70;;;;;;;8.24;100.00;99424.28;5077091;28;20631;-80
2024/02/01 09:50:12;;;;;;;2.40;1.80;;;;;;;8.27;100.00;99431.22;5076963;28;20231;-78
2024/02/01 09:52:40;;;;;;;2.27;1.60;;;;;;;8.30;100.00;99433.72;5078963;28;20292;-81
2024/02/01 09:55:07;;;;;;;3.13;2.00;;;;;;;8.31;100.00;99445.97;5079157;28;20201;-81
2024/02/01 09:57:40;;;;;;;3.17;1.70;;;;;;;8.32;100.00;99443.28;5078609;28;20239;-80
2024/02/01 10:00:12;;;;;;;3.83;2.20;;;;;;;8.30;100.00;99444.25;5080585;28;20623;-79
2024/02/01 10:02:40;;;;;;;2.90;2.07;;;;;;;8.32;100.00;99445.91;5083259;28;20233;-79
2024/02/01 10:05:08;;;;;;;4.67;1.67;;;;;;;8.36;100.00;99444.00;5081489;28;20232;-79
2024/02/01 10:07:34;;;;;;;2.50;1.40;;;;;;;8.36;100.00;99449.28;5077947;28;20215;-78
2024/02/01 10:10:02;;;;;;;1.50;1.17;;;;;;;8.33;100.00;99442.34;5079091;28;20305;-78
2024/02/01 10:12:29;;;;;;;1.87;1.20;;;;;;;8.33;100.00;99439.72;5077112;28;20637;-80
2024/02/01 10:14:55;;;;;;;2.60;1.33;;;;;;;8.32;100.00;99439.78;5076951;28;20229;-77
2024/02/01 10:17:25;;;;;;;1.80;1.40;;;;;;;8.29;100.00;99442.53;5076921;28;20215;-79
2024/02/01 10:19:54;;;;;;;5.50;1.60;;;;;;;8.31;100.00;99451.22;5075934;28;20585;-79
2024/02/01 10:22:20;;;;;;;2.30;1.70;;;;;;;8.33;100.00;99452.03;5080358;28;20370;-77
2024/02/01 10:24:49;;;;;;;3.17;1.80;;;;;;;8.30;100.00;99450.38;5073391;28;20218;-78
2024/02/01 10:27:19;;;;;;;1.73;1.33;;;;;;;8.34;100.00;99445.84;5076669;28;20625;-80
2024/02/01 10:29:46;;;;;;;1.70;1.40;;;;;;;8.35;100.00;99437.03;5081892;28;20312;-79
2024/02/01 10:32:14;;;;;;;2.33;2.00;;;;;;;8.38;100.00;99443.03;5081374;28;20808;-78
2024/02/01 10:34:45;;;;;;;1.73;1.13;;;;;;;8.45;100.00;99433.97;5084194;28;20215;-78
2024/02/01 10:37:13;;;;;;;2.60;1.80;;;;;;;8.54;100.00;99432.72;5083327;28;20212;-78
2024/02/01 10:39:47;;;;;;;1.55;1.45;;;;;;;8.62;100.00;99430.66;5083548;28;20422;-78
2024/02/01 10:42:21;;;;;;;1.80;1.40;;;;;;;8.68;100.00;99427.75;5082659;28;20239;-81
2024/02/01 10:44:50;;;;;;;1.80;1.10;;;;;;;8.70;100.00;99433.84;5065330;28;20229;-78
2024/02/01 10:47:21;;;;;;;1.93;1.20;;;;;;;8.72;100.00;99424.94;5075797;28;20218;-78
2024/02/01 10:49:53;;;;;;;1.20;1.00;;;;;;;8.81;100.00;99426.34;5082748;28;20214;-78
2024/02/01 10:52:21;;;;;;;1.30;1.20;;;;;;;8.87;100.00;99426.09;5079019;28;20232;-78
2024/02/01 10:54:48;;;;;;;1.67;1.10;;;;;;;8.86;100.00;99414.66;5082439;28;20233;-79
2024/02/01 10:57:15;;;;;;;1.53;1.23;;;;;;;8.90;100.00;99418.91;5082498;28;20212;-78
2024/02/01 10:59:45;;;;;;;1.13;1.03;;;;;;;8.95;100.00;99418.69;5083158;28;20205;-80
2024/02/01 11:02:12;;;;;;;1.30;1.03;;;;;;;8.95;100.00;99413.44;5083368;28;20230;-78
2024/02/01 11:04:39;;;;;;;1.23;1.13;;;;;;;8.91;100.00;99411.84;5083319;28;20253;-79
2024/02/01 11:07:07;;;;;;;0.80;0.80;;;;;;;8.85;100.00;99412.09;5083053;28;20217;-78
2024/02/01 11:09:35;;;;;;;1.17;1.00;;;;;;;8.89;100.00;99416.31;5084953;28;20819;-78
2024/02/01 11:12:03;;;;;;;1.63;1.20;;;;;;;8.89;100.00;99404.00;5083933;28;20235;-78
2024/02/01 11:14:31;;;;;;;1.33;1.00;;;;;;;8.93;100.00;99415.28;5082474;28;20209;-79
2024/02/01 11:17:02;;;;;;;1.37;1.27;;;;;;;8.93;100.00;99416.13;5082352;28;20209;-79
2024/02/01 11:19:31;;;;;;;1.73;1.27;;;;;;;8.97;100.00;99416.84;5083703;28;20216;-78
2024/02/01 11:22:01;;;;;;;1.20;1.00;;;;;;;8.96;100.00;99405.47;5082314;28;20313;-79
2024/02/01 11:24:30;;;;;;;2.03;1.40;;;;;;;8.99;100.00;99404.47;5085119;28;20232;-79
2024/02/01 11:26:59;;;;;;;1.33;1.10;;;;;;;8.95;100.00;99393.22;5083670;28;20441;-79
2024/02/01 11:29:26;;;;;;;1.10;1.03;;;;;;;8.96;100.00;99409.88;5086082;28;20217;-79
2024/02/01 11:31:56;;;;;;;1.90;1.30;;;;;;;9.02;100.00;99409.59;5088658;28;20320;-79
2024/02/01 11:34:23;;;;;;;2.00;1.80;;;;;;;9.09;100.00;99403.13;5089123;28;20254;-79
2024/02/01 11:36:49;;;;;;;3.67;1.70;;;;;;;9.07;100.00;99399.72;5087852;28;20207;-79
2024/02/01 11:39:17;;;;;;;2.03;1.38;;;;;;;9.11;100.00;99399.50;5083747;28;20436;-79
2024/02/01 11:41:46;;;;;;;2.30;1.77;;;;;;;9.17;100.00;99398.41;5071425;28;20620;-80
2024/02/01 11:44:13;;;;;;;1.90;1.40;;;;;;;9.23;100.00;99395.50;5076051;28;20245;-79
2024/02/01 11:46:45;;;;;;;1.60;1.27;;;;;;;9.33;100.00;99404.72;5058892;28;20233;-78
2024/02/01 11:49:16;;;;;;;1.70;1.30;;;;;;;9.34;100.00;99411.69;5067663;28;20208;-79
2024/02/01 11:51:43;;;;;;;1.97;1.50;;;;;;;9.35;100.00;99400.22;5075295;28;20254;-80
2024/02/01 11:54:10;;;;;;;2.27;2.07;;;;;;;9.31;100.00;99406.56;5073865;28;20201;-78
2024/02/01 11:56:39;;;;;;;2.90;1.93;;;;;;;9.30;100.00;99404.84;5074002;28;20220;-78
2024/02/01 11:59:07;;;;;;;2.67;1.87;;;;;;;9.34;100.00;99411.69;5075480;28;20221;-80
2024/02/01 12:01:34;;;;;;;2.47;1.87;;;;;;;9.31;100.00;99412.69;5079805;28;20243;-79
2024/02/01 12:04:00;;;;;;;1.90;1.70;;;;;;;9.29;100.00;99411.03;5079605;28;20648;-79
2024/02/01 12:06:30;;;;;;;2.03;1.80;;;;;;;9.28;100.00;99410.19;5083198;28;20204;-79
2024/02/01 12:08:59;;;;;;;2.63;2.17;;;;;;;9.29;100.00;99403.13;5082083;28;20218;-79
2024/02/01 12:11:33;;;;;;;2.53;2.10;;;;;;;9.32;100.00;99397.72;5081166;28;20236;-79